Time;durP1;ratioP1;P1;durP2;ratioP2;P2;SDS_P1;SDS_P2;PMS_P1;PMS_P2;Temp;Humidity;BMP_temperature;BMP_pressure;BME280_temperature;BME280_humidity;BME280_pressure;Samples;Min_cycle;Max_cycle;Signal;HPM_P1;HPM_P2
2023/01/22 00:01:17;;;;;;;35.53;16.67;;;;;;;;;;6037908;19;20509;-74
2023/01/22 00:04:08;;;;;;;38.13;16.50;;;;;;;;;;6007862;19;20765;-74
2023/01/22 00:06:37;;;;;;;35.17;15.88;;;;;;;;;;6000990;19;20167;-74
2023/01/22 00:08:50;;;;;;;41.08;18.15;;;;;;;;;;6056331;19;20006;-74
2023/01/22 00:11:01;;;;;;;45.00;17.10;;;;;;;;;;6049416;19;20298;-73
2023/01/22 00:13:07;;;;;;;38.20;15.52;;;;;;;;;;6027591;19;20709;-73
2023/01/22 00:15:23;;;;;;;37.60;15.35;;;;;;;;;;6045420;19;20014;-73
2023/01/22 00:17:36;;;;;;;42.63;16.80;;;;;;;;;;6018838;19;20228;-73
2023/01/22 00:19:51;;;;;;;32.13;15.18;;;;;;;;;;5997059;19;20615;-73
2023/01/22 00:24:58;;;;;;;35.20;15.85;;;;;;;;;;5978542;19;20277;-73
2023/01/22 00:27:21;;;;;;;40.72;18.27;;;;;;;;;;6051488;19;20379;-73
2023/01/22 00:29:31;;;;;;;35.65;15.35;;;;;;;;;;6015067;19;20021;-73
2023/01/22 00:31:43;;;;;;;41.47;17.30;;;;;;;;;;6013904;19;20023;-73
2023/01/22 00:33:56;;;;;;;42.47;18.02;;;;;;;;;;6053076;19;20014;-73
2023/01/22 00:36:16;;;;;;;35.00;16.55;;;;;;;;;;6054337;19;20404;-73
2023/01/22 00:38:30;;;;;;;36.03;15.23;;;;;;;;;;6020855;19;20251;-73
2023/01/22 00:40:45;;;;;;;33.03;15.60;;;;;;;;;;6031104;19;20367;-73
2023/01/22 00:42:58;;;;;;;39.42;16.58;;;;;;;;;;6016291;19;20405;-73
2023/01/22 00:45:19;;;;;;;29.70;13.68;;;;;;;;;;6035475;19;20046;-74
2023/01/22 00:47:26;;;;;;;30.67;14.93;;;;;;;;;;6046626;19;20053;-73
2023/01/22 00:49:39;;;;;;;31.35;13.65;;;;;;;;;;6031842;19;20316;-73
2023/01/22 00:51:51;;;;;;;38.20;16.65;;;;;;;;;;6036181;19;20439;-74
2023/01/22 00:54:01;;;;;;;32.80;15.00;;;;;;;;;;6035984;19;20298;-73
2023/01/22 00:56:42;;;;;;;;;;;;;;;;;;;;;
2023/01/22 00:58:58;;;;;;;25.90;11.95;;;;;;;;;;6062257;19;20064;-74
2023/01/22 01:01:29;;;;;;;31.95;13.95;;;;;;;;;;6005536;19;20489;-74
2023/01/22 01:03:40;;;;;;;31.63;14.57;;;;;;;;;;6057244;19;20748;-73
2023/01/22 01:05:50;;;;;;;27.42;16.83;;;;;;;;;;6055079;19;20627;-73
2023/01/22 01:07:55;;;;;;;32.72;15.18;;;;;;;;;;6052698;19;20033;-73
2023/01/22 01:10:05;;;;;;;31.90;14.75;;;;;;;;;;6047354;19;20007;-73
2023/01/22 01:12:15;;;;;;;30.17;14.45;;;;;;;;;;6056796;19;20018;-74
2023/01/22 01:14:26;;;;;;;35.08;16.13;;;;;;;;;;6029394;19;20424;-73
2023/01/22 01:16:33;;;;;;;32.50;15.10;;;;;;;;;;6042054;19;20482;-73
2023/01/22 01:18:46;;;;;;;34.22;15.60;;;;;;;;;;6058468;19;20284;-73
2023/01/22 01:21:06;;;;;;;35.58;15.43;;;;;;;;;;6055236;19;20009;-73
2023/01/22 01:23:25;;;;;;;27.23;14.63;;;;;;;;;;6052210;19;20545;-73
2023/01/22 01:25:44;;;;;;;34.75;14.15;;;;;;;;;;6004655;19;20276;-73
2023/01/22 01:27:58;;;;;;;33.10;14.70;;;;;;;;;;6059960;19;20011;-74
2023/01/22 01:30:15;;;;;;;28.05;12.75;;;;;;;;;;6033018;19;20010;-73
2023/01/22 01:32:23;;;;;;;33.67;14.95;;;;;;;;;;6056214;19;20134;-75
2023/01/22 01:34:34;;;;;;;28.90;14.18;;;;;;;;;;6029392;19;20016;-73
2023/01/22 01:36:44;;;;;;;27.13;14.05;;;;;;;;;;6039082;19;20618;-73
2023/01/22 01:39:11;;;;;;;29.05;14.02;;;;;;;;;;6031706;19;20012;-73
2023/01/22 01:41:27;;;;;;;30.90;15.27;;;;;;;;;;6025182;19;20582;-74
2023/01/22 01:43:50;;;;;;;25.58;13.43;;;;;;;;;;6059176;19;20341;-75
2023/01/22 01:46:01;;;;;;;33.75;15.32;;;;;;;;;;6031864;19;20019;-73
2023/01/22 01:48:18;;;;;;;29.23;12.30;;;;;;;;;;6057024;19;20299;-73
2023/01/22 01:50:28;;;;;;;26.13;13.07;;;;;;;;;;6009656;19;20279;-73
2023/01/22 01:52:39;;;;;;;27.05;12.45;;;;;;;;;;6001743;19;20011;-74
2023/01/22 01:54:51;;;;;;;24.15;12.27;;;;;;;;;;6033654;19;20401;-73
2023/01/22 01:57:16;;;;;;;30.58;12.82;;;;;;;;;;6025942;19;20279;-73
2023/01/22 01:59:32;;;;;;;28.75;12.02;;;;;;;;;;6047462;19;20043;-73
2023/01/22 02:01:47;;;;;;;27.80;13.60;;;;;;;;;;6007218;19;20245;-73
2023/01/22 02:03:55;;;;;;;;;;;;;;;;;;6058467;19;20643;-73
2023/01/22 02:06:11;;;;;;;26.05;10.90;;;;;;;;;;6032513;19;19922;-73
2023/01/22 02:08:24;;;;;;;25.13;11.40;;;;;;;;;;6049023;19;20368;-73
2023/01/22 02:10:34;;;;;;;24.67;11.50;;;;;;;;;;6003589;19;20014;-73
2023/01/22 02:12:47;;;;;;;25.10;11.18;;;;;;;;;;6058452;19;20015;-73
2023/01/22 02:14:56;;;;;;;21.77;11.27;;;;;;;;;;6031528;19;20566;-73
2023/01/22 02:17:11;;;;;;;23.05;10.80;;;;;;;;;;6042941;19;20560;-72
2023/01/22 02:19:33;;;;;;;23.80;10.93;;;;;;;;;;6042180;19;20171;-73
2023/01/22 02:21:44;;;;;;;21.42;10.40;;;;;;;;;;6015000;19;20213;-74
2023/01/22 02:23:53;;;;;;;21.67;12.00;;;;;;;;;;6041075;19;20404;-73
2023/01/22 02:26:21;;;;;;;24.25;9.95;;;;;;;;;;6038456;19;20010;-75
2023/01/22 02:28:38;;;;;;;20.90;9.82;;;;;;;;;;6016485;19;20006;-75
2023/01/22 02:30:45;;;;;;;22.08;10.88;;;;;;;;;;6058928;19;20200;-72
2023/01/22 02:33:05;;;;;;;22.00;11.23;;;;;;;;;;6070724;19;20334;-74
2023/01/22 02:35:19;;;;;;;19.27;9.85;;;;;;;;;;6062604;19;20019;-74
2023/01/22 02:37:32;;;;;;;18.65;10.13;;;;;;;;;;5994857;19;20018;-75
2023/01/22 02:39:37;;;;;;;;;;;;;;;;;;6031469;19;20007;-73
2023/01/22 02:41:42;;;;;;;24.25;10.18;;;;;;;;;;6055196;19;20194;-73
2023/01/22 02:43:50;;;;;;;22.13;10.57;;;;;;;;;;6058829;19;20011;-73
2023/01/22 02:45:56;;;;;;;23.40;10.50;;;;;;;;;;6061074;19;20014;-73
2023/01/22 02:48:06;;;;;;;25.33;10.95;;;;;;;;;;6036889;19;20467;-74
2023/01/22 02:50:15;;;;;;;21.20;9.55;;;;;;;;;;6060225;19;20350;-73
2023/01/22 02:52:24;;;;;;;19.45;9.15;;;;;;;;;;6028909;19;20495;-73
2023/01/22 02:54:49;;;;;;;22.67;10.45;;;;;;;;;;6035463;19;20574;-73
2023/01/22 02:57:19;;;;;;;17.70;9.95;;;;;;;;;;6029153;19;20013;-74
2023/01/22 02:59:24;;;;;;;20.23;9.43;;;;;;;;;;6003319;19;20373;-73
2023/01/22 03:01:34;;;;;;;18.25;9.13;;;;;;;;;;6035689;19;20253;-73
2023/01/22 03:03:44;;;;;;;18.65;9.05;;;;;;;;;;6058189;19;20017;-73
2023/01/22 03:05:53;;;;;;;18.20;10.00;;;;;;;;;;6059543;19;20230;-73
2023/01/22 03:08:01;;;;;;;22.98;10.23;;;;;;;;;;6068405;19;20486;-74
2023/01/22 03:10:16;;;;;;;20.73;10.35;;;;;;;;;;6045449;19;20469;-74
2023/01/22 03:21:55;;;;;;;23.05;9.20;;;;;;;;;;6057030;19;20014;-73
2023/01/22 03:24:07;;;;;;;22.63;9.98;;;;;;;;;;6046644;19;20017;-74
2023/01/22 03:26:30;;;;;;;18.02;8.68;;;;;;;;;;6004667;19;20028;-73
2023/01/22 03:28:39;;;;;;;18.38;9.23;;;;;;;;;;6004548;19;20014;-74
2023/01/22 03:30:48;;;;;;;20.98;10.05;;;;;;;;;;6029848;19;20332;-74
2023/01/22 03:33:01;;;;;;;22.33;9.90;;;;;;;;;;6055768;19;20118;-74
2023/01/22 03:35:14;;;;;;;20.52;9.90;;;;;;;;;;6039443;19;20010;-72
2023/01/22 03:37:25;;;;;;;22.00;10.05;;;;;;;;;;6034697;19;20447;-73
2023/01/22 03:39:35;;;;;;;23.08;11.38;;;;;;;;;;6031003;19;20250;-73
2023/01/22 03:41:52;;;;;;;22.35;11.35;;;;;;;;;;6031806;19;20010;-75
2023/01/22 03:44:00;;;;;;;17.60;9.98;;;;;;;;;;6026948;19;20025;-73
2023/01/22 03:46:07;;;;;;;20.08;10.15;;;;;;;;;;6057173;19;20280;-73
2023/01/22 03:48:36;;;;;;;19.55;8.60;;;;;;;;;;6031795;19;20440;-74
2023/01/22 03:50:44;;;;;;;21.45;9.32;;;;;;;;;;6039021;19;20023;-74
2023/01/22 03:52:50;;;;;;;19.17;9.02;;;;;;;;;;6025983;19;20502;-74
2023/01/22 03:55:02;;;;;;;23.20;9.48;;;;;;;;;;6049371;19;20212;-75
2023/01/22 03:57:14;;;;;;;17.48;9.27;;;;;;;;;;6053850;19;20063;-74
2023/01/22 03:59:25;;;;;;;17.60;9.15;;;;;;;;;;6013332;19;20018;-74
2023/01/22 04:01:38;;;;;;;20.17;8.80;;;;;;;;;;6046929;19;20017;-74
2023/01/22 04:03:51;;;;;;;21.58;9.07;;;;;;;;;;6044224;19;20040;-74
2023/01/22 04:06:11;;;;;;;19.27;9.38;;;;;;;;;;6057621;19;20042;-74
2023/01/22 04:08:21;;;;;;;19.30;8.60;;;;;;;;;;6049067;19;20564;-74
2023/01/22 04:10:29;;;;;;;17.52;8.02;;;;;;;;;;6021744;19;20302;-73
2023/01/22 04:12:51;;;;;;;16.55;7.95;;;;;;;;;;6028616;19;20116;-73
2023/01/22 04:14:58;;;;;;;18.42;8.45;;;;;;;;;;6056230;19;20090;-74
2023/01/22 04:17:11;;;;;;;16.77;8.23;;;;;;;;;;6052362;19;20503;-74
2023/01/22 04:19:18;;;;;;;17.73;8.90;;;;;;;;;;6054780;19;20035;-74
2023/01/22 04:21:34;;;;;;;16.25;7.88;;;;;;;;;;6026123;19;20085;-73
2023/01/22 04:23:50;;;;;;;16.83;7.85;;;;;;;;;;6055105;19;20038;-73
2023/01/22 04:26:06;;;;;;;21.70;8.38;;;;;;;;;;5991674;19;20114;-73
2023/01/22 04:28:20;;;;;;;18.50;8.40;;;;;;;;;;6056026;19;20117;-72
2023/01/22 04:30:26;;;;;;;19.83;8.48;;;;;;;;;;6049865;19;20035;-72
2023/01/22 04:32:34;;;;;;;18.15;8.82;;;;;;;;;;6023964;19;20323;-73
2023/01/22 04:34:52;;;;;;;16.48;8.45;;;;;;;;;;6037204;19;20271;-75
2023/01/22 04:37:02;;;;;;;16.17;7.65;;;;;;;;;;6050085;19;20581;-75
2023/01/22 04:39:08;;;;;;;15.25;8.02;;;;;;;;;;6065250;19;20018;-73
2023/01/22 04:41:17;;;;;;;17.63;7.50;;;;;;;;;;6031873;19;20757;-75
2023/01/22 04:45:58;;;;;;;17.35;8.68;;;;;;;;;;6003891;19;20225;-73
2023/01/22 04:48:19;;;;;;;18.42;8.00;;;;;;;;;;6056877;19;20479;-73
2023/01/22 04:50:36;;;;;;;15.20;7.22;;;;;;;;;;6026149;19;20175;-73
2023/01/22 04:52:53;;;;;;;18.30;8.38;;;;;;;;;;6055204;19;20317;-73
2023/01/22 04:55:07;;;;;;;17.02;8.35;;;;;;;;;;6070109;19;20099;-72
2023/01/22 04:57:30;;;;;;;;;;;;;;;;;;;;;
2023/01/22 04:59:41;;;;;;;22.85;9.15;;;;;;;;;;6065049;19;20022;-73
2023/01/22 05:02:02;;;;;;;17.92;9.40;;;;;;;;;;6032143;19;20011;-73
2023/01/22 05:04:15;;;;;;;16.38;8.27;;;;;;;;;;6058582;19;20288;-72
2023/01/22 05:06:28;;;;;;;17.50;8.13;;;;;;;;;;6006107;19;20101;-73
2023/01/22 05:08:34;;;;;;;15.45;7.75;;;;;;;;;;6046917;19;20341;-73
2023/01/22 05:11:01;;;;;;;14.45;7.65;;;;;;;;;;6040573;19;20013;-73
2023/01/22 05:13:17;;;;;;;15.65;8.35;;;;;;;;;;6051622;19;20519;-72
2023/01/22 05:15:43;;;;;;;16.10;8.38;;;;;;;;;;6056509;19;20009;-72
2023/01/22 05:18:01;;;;;;;19.88;7.88;;;;;;;;;;6038038;19;20022;-73
2023/01/22 05:20:08;;;;;;;12.82;6.93;;;;;;;;;;6055825;19;20023;-75
2023/01/22 05:22:17;;;;;;;16.23;8.10;;;;;;;;;;6023897;19;20582;-72
2023/01/22 05:24:24;;;;;;;16.02;7.72;;;;;;;;;;6016028;19;20062;-73
2023/01/22 05:26:33;;;;;;;14.15;7.53;;;;;;;;;;6021336;19;20384;-72
2023/01/22 05:28:45;;;;;;;16.05;7.55;;;;;;;;;;6050407;19;20018;-72
2023/01/22 05:31:03;;;;;;;14.73;7.82;;;;;;;;;;6034219;19;20028;-72
2023/01/22 05:33:11;;;;;;;21.60;8.45;;;;;;;;;;6031091;19;20300;-73
2023/01/22 05:35:22;;;;;;;16.55;7.57;;;;;;;;;;6034081;19;20360;-73
2023/01/22 05:37:35;;;;;;;18.73;8.57;;;;;;;;;;6038068;19;20388;-74
2023/01/22 05:39:49;;;;;;;18.33;8.50;;;;;;;;;;6063983;19;20036;-74
2023/01/22 05:41:58;;;;;;;18.45;8.77;;;;;;;;;;6057078;19;20037;-74
2023/01/22 05:44:07;;;;;;;18.75;8.27;;;;;;;;;;6062197;19;20533;-73
2023/01/22 05:46:18;;;;;;;17.30;8.32;;;;;;;;;;6032901;19;20429;-74
2023/01/22 05:48:25;;;;;;;21.35;9.48;;;;;;;;;;6054467;19;20476;-74
2023/01/22 05:50:41;;;;;;;19.00;8.88;;;;;;;;;;6055795;19;20014;-73
2023/01/22 05:52:50;;;;;;;17.83;8.23;;;;;;;;;;6064811;19;20007;-74
2023/01/22 05:54:55;;;;;;;18.85;8.80;;;;;;;;;;6084013;19;20007;-74
2023/01/22 05:57:08;;;;;;;20.02;9.40;;;;;;;;;;6061393;19;20086;-73
2023/01/22 05:59:15;;;;;;;18.58;8.93;;;;;;;;;;6061530;19;20201;-73
2023/01/22 06:01:25;;;;;;;19.27;9.35;;;;;;;;;;6009135;19;20255;-73
2023/01/22 06:03:54;;;;;;;24.77;8.88;;;;;;;;;;6052630;19;20610;-73
2023/01/22 06:06:00;;;;;;;15.57;7.03;;;;;;;;;;6028054;19;20686;-73
2023/01/22 06:08:14;;;;;;;19.13;8.30;;;;;;;;;;6027438;19;20018;-74
2023/01/22 06:10:21;;;;;;;15.68;7.30;;;;;;;;;;6028662;19;20010;-73
2023/01/22 06:12:28;;;;;;;17.30;8.68;;;;;;;;;;6052682;19;20010;-74
2023/01/22 06:14:35;;;;;;;18.60;7.90;;;;;;;;;;6046030;19;20718;-73
2023/01/22 06:17:01;;;;;;;16.73;8.00;;;;;;;;;;6058903;19;20211;-74
2023/01/22 06:19:07;;;;;;;13.25;6.57;;;;;;;;;;6060087;19;20304;-76
2023/01/22 06:21:15;;;;;;;18.73;8.43;;;;;;;;;;6065198;19;20185;-77
2023/01/22 06:23:21;;;;;;;17.98;7.55;;;;;;;;;;6046047;19;20011;-77
2023/01/22 06:25:30;;;;;;;15.73;7.70;;;;;;;;;;6036135;19;20494;-74
2023/01/22 06:27:42;;;;;;;17.33;7.63;;;;;;;;;;6025808;19;20019;-76
2023/01/22 06:29:50;;;;;;;19.15;9.55;;;;;;;;;;6044285;19;20018;-74
2023/01/22 06:32:07;;;;;;;13.02;7.35;;;;;;;;;;6049554;19;20444;-74
2023/01/22 06:34:15;;;;;;;16.27;7.85;;;;;;;;;;6046656;19;20007;-74
2023/01/22 06:36:23;;;;;;;15.90;7.55;;;;;;;;;;6048128;19;20223;-74
2023/01/22 06:38:28;;;;;;;15.27;7.53;;;;;;;;;;6047941;19;20291;-74
2023/01/22 06:40:40;;;;;;;10.52;4.70;;;;;;;;;;6046687;19;20023;-74
2023/01/22 06:42:47;;;;;;;17.80;7.88;;;;;;;;;;6046560;19;22686;-74
2023/01/22 06:44:52;;;;;;;14.73;7.32;;;;;;;;;;6026162;19;20014;-74
2023/01/22 06:47:01;;;;;;;13.10;6.25;;;;;;;;;;6033697;19;20222;-74
2023/01/22 06:49:06;;;;;;;12.40;6.45;;;;;;;;;;6043770;19;20205;-77
2023/01/22 06:51:12;;;;;;;17.42;7.93;;;;;;;;;;6051183;19;20320;-77
2023/01/22 06:53:17;;;;;;;14.82;7.28;;;;;;;;;;6054932;19;20511;-76
2023/01/22 06:55:22;;;;;;;16.23;7.10;;;;;;;;;;6050511;19;20220;-78
2023/01/22 06:57:27;;;;;;;14.15;6.95;;;;;;;;;;6050061;19;20470;-78
2023/01/22 06:59:33;;;;;;;15.30;6.93;;;;;;;;;;6046932;19;20252;-77
2023/01/22 07:01:41;;;;;;;11.70;5.93;;;;;;;;;;6068755;19;20476;-77
2023/01/22 07:03:48;;;;;;;13.40;6.53;;;;;;;;;;6025398;19;20477;-76
2023/01/22 07:05:59;;;;;;;15.38;5.97;;;;;;;;;;6048821;19;20098;-78
2023/01/22 07:08:05;;;;;;;12.85;6.15;;;;;;;;;;6046350;19;20011;-76
2023/01/22 07:10:11;;;;;;;13.48;5.80;;;;;;;;;;6069347;19;20021;-76
2023/01/22 07:12:20;;;;;;;13.63;6.30;;;;;;;;;;6058984;19;20500;-76
2023/01/22 07:14:25;;;;;;;15.18;6.63;;;;;;;;;;6060430;19;20010;-76
2023/01/22 07:16:41;;;;;;;18.80;6.65;;;;;;;;;;6052939;19;20413;-77
2023/01/22 07:18:48;;;;;;;13.70;5.50;;;;;;;;;;6058939;19;20015;-76
2023/01/22 07:20:54;;;;;;;11.55;5.63;;;;;;;;;;6059315;19;20409;-76
2023/01/22 07:23:02;;;;;;;10.30;5.25;;;;;;;;;;6062587;19;20778;-77
2023/01/22 07:25:08;;;;;;;13.38;5.50;;;;;;;;;;6076628;19;20035;-77
2023/01/22 07:27:14;;;;;;;11.52;5.35;;;;;;;;;;6064703;19;20654;-76
2023/01/22 07:29:19;;;;;;;12.57;5.43;;;;;;;;;;6077502;19;20038;-76
2023/01/22 07:31:24;;;;;;;9.48;5.03;;;;;;;;;;6055485;19;20633;-79
2023/01/22 07:33:29;;;;;;;10.18;4.90;;;;;;;;;;6075633;19;20318;-77
2023/01/22 07:35:37;;;;;;;11.32;5.13;;;;;;;;;;6071771;19;20472;-78
2023/01/22 07:37:42;;;;;;;11.02;5.85;;;;;;;;;;6038878;19;20192;-76
2023/01/22 07:39:49;;;;;;;11.80;5.28;;;;;;;;;;6056713;19;20027;-78
2023/01/22 07:41:54;;;;;;;12.15;5.55;;;;;;;;;;6055716;19;20380;-76
2023/01/22 07:44:02;;;;;;;9.75;4.57;;;;;;;;;;6060864;19;20318;-76
2023/01/22 07:46:23;;;;;;;9.40;5.03;;;;;;;;;;6073186;19;20002;-74
2023/01/22 07:48:33;;;;;;;13.18;5.45;;;;;;;;;;5998434;19;20014;-74
2023/01/22 07:50:42;;;;;;;10.70;5.22;;;;;;;;;;6008217;19;20014;-74
2023/01/22 07:53:05;;;;;;;10.88;4.80;;;;;;;;;;6056445;19;20010;-74
2023/01/22 07:55:17;;;;;;;8.45;4.72;;;;;;;;;;6035250;19;20334;-74
2023/01/22 07:57:24;;;;;;;9.75;4.45;;;;;;;;;;6013351;19;20010;-73
2023/01/22 07:59:35;;;;;;;11.40;5.70;;;;;;;;;;6023135;19;20206;-73
2023/01/22 08:04:07;;;;;;;10.65;4.63;;;;;;;;;;6044196;19;20561;-76
2023/01/22 08:06:19;;;;;;;9.52;4.82;;;;;;;;;;6045019;19;20479;-77
2023/01/22 08:08:24;;;;;;;10.40;6.03;;;;;;;;;;6049461;19;20419;-76
2023/01/22 08:10:30;;;;;;;10.98;5.13;;;;;;;;;;6057171;19;20018;-76
2023/01/22 08:12:37;;;;;;;9.52;5.13;;;;;;;;;;6048123;19;20245;-76
2023/01/22 08:14:42;;;;;;;13.15;4.72;;;;;;;;;;6047917;19;20023;-79
2023/01/22 08:16:48;;;;;;;6.80;3.70;;;;;;;;;;6043203;19;20378;-78
2023/01/22 08:18:54;;;;;;;11.80;5.63;;;;;;;;;;6045437;19;20011;-76
2023/01/22 08:21:01;;;;;;;10.88;4.82;;;;;;;;;;6067435;19;20070;-76
2023/01/22 08:23:11;;;;;;;11.25;4.68;;;;;;;;;;6053958;19;20042;-76
2023/01/22 08:25:19;;;;;;;10.25;4.72;;;;;;;;;;6052371;19;20278;-76
2023/01/22 08:27:25;;;;;;;9.65;4.68;;;;;;;;;;6049515;19;20356;-76
2023/01/22 08:29:33;;;;;;;11.60;4.22;;;;;;;;;;6056533;19;20843;-76
2023/01/22 08:31:38;;;;;;;10.85;5.30;;;;;;;;;;6052605;19;20365;-76
2023/01/22 08:33:44;;;;;;;12.23;4.72;;;;;;;;;;6050323;19;20147;-76
2023/01/22 08:35:50;;;;;;;11.40;5.05;;;;;;;;;;6055786;19;20188;-76
2023/01/22 08:37:55;;;;;;;9.25;5.18;;;;;;;;;;6054712;19;20617;-76
2023/01/22 08:40:07;;;;;;;9.40;5.72;;;;;;;;;;6075798;19;20491;-78
2023/01/22 08:42:12;;;;;;;11.20;4.72;;;;;;;;;;6060843;19;20510;-76
2023/01/22 08:44:17;;;;;;;9.07;4.53;;;;;;;;;;6061556;19;20017;-76
2023/01/22 08:46:23;;;;;;;11.65;5.55;;;;;;;;;;6067986;19;20396;-76
2023/01/22 08:48:27;;;;;;;14.57;5.82;;;;;;;;;;6073186;19;20351;-76
2023/01/22 08:50:33;;;;;;;10.70;5.07;;;;;;;;;;6064846;19;20079;-76
2023/01/22 08:52:38;;;;;;;11.25;4.25;;;;;;;;;;6065778;19;20514;-77
2023/01/22 08:54:43;;;;;;;11.45;5.05;;;;;;;;;;6051512;19;20194;-76
2023/01/22 08:56:52;;;;;;;13.90;5.22;;;;;;;;;;6051968;19;20618;-76
2023/01/22 08:58:59;;;;;;;9.13;4.72;;;;;;;;;;6046758;19;20266;-76
2023/01/22 09:01:07;;;;;;;13.60;4.90;;;;;;;;;;6060096;19;20022;-76
2023/01/22 09:03:15;;;;;;;11.00;5.25;;;;;;;;;;6056290;19;20453;-76
2023/01/22 09:05:20;;;;;;;13.77;5.20;;;;;;;;;;6059357;19;20227;-77
2023/01/22 09:07:25;;;;;;;12.38;5.38;;;;;;;;;;6040815;19;20309;-77
2023/01/22 09:09:35;;;;;;;13.10;5.35;;;;;;;;;;6042533;19;20323;-77
2023/01/22 09:11:41;;;;;;;9.88;4.78;;;;;;;;;;6057224;19;20020;-77
2023/01/22 09:13:49;;;;;;;11.27;5.35;;;;;;;;;;6050496;19;20752;-77
2023/01/22 09:15:57;;;;;;;12.07;5.57;;;;;;;;;;6048527;19;21881;-76
2023/01/22 09:18:05;;;;;;;11.52;5.35;;;;;;;;;;6042358;19;20188;-77
2023/01/22 09:20:14;;;;;;;9.82;5.38;;;;;;;;;;6046339;19;20559;-77
2023/01/22 09:22:19;;;;;;;11.45;5.20;;;;;;;;;;6043046;19;20370;-76
2023/01/22 09:24:24;;;;;;;10.05;5.15;;;;;;;;;;6037839;19;20178;-76
2023/01/22 09:26:31;;;;;;;10.30;4.88;;;;;;;;;;6051463;19;20663;-76
2023/01/22 09:28:36;;;;;;;12.68;6.25;;;;;;;;;;6039567;19;20238;-76
2023/01/22 09:30:45;;;;;;;13.70;6.07;;;;;;;;;;6047423;19;20008;-76
2023/01/22 09:32:50;;;;;;;11.45;5.00;;;;;;;;;;6044531;19;20676;-77
2023/01/22 09:34:55;;;;;;;10.07;5.38;;;;;;;;;;6047117;19;20014;-77
2023/01/22 09:37:06;;;;;;;9.40;4.47;;;;;;;;;;6043819;19;20414;-76
2023/01/22 09:39:14;;;;;;;11.77;5.40;;;;;;;;;;6044480;19;20199;-77
2023/01/22 09:41:22;;;;;;;13.93;5.72;;;;;;;;;;6048739;19;20015;-77
2023/01/22 09:43:33;;;;;;;12.30;5.35;;;;;;;;;;6046653;19;20518;-76
2023/01/22 09:45:44;;;;;;;9.60;4.90;;;;;;;;;;6045101;19;20294;-76
2023/01/22 09:47:51;;;;;;;10.93;5.10;;;;;;;;;;6048326;19;20466;-76
2023/01/22 09:50:05;;;;;;;12.68;5.32;;;;;;;;;;6042791;19;20431;-77
2023/01/22 09:52:11;;;;;;;9.55;4.70;;;;;;;;;;6045583;19;20011;-76
2023/01/22 09:54:18;;;;;;;12.52;6.20;;;;;;;;;;6042012;19;20268;-76
2023/01/22 09:56:25;;;;;;;11.25;5.55;;;;;;;;;;6037442;19;20098;-75
2023/01/22 09:58:31;;;;;;;13.20;5.70;;;;;;;;;;6045029;19;20007;-76
2023/01/22 10:00:46;;;;;;;18.58;5.10;;;;;;;;;;6041647;19;20377;-76
2023/01/22 10:02:54;;;;;;;16.02;6.03;;;;;;;;;;6041377;19;20019;-76
2023/01/22 10:05:05;;;;;;;12.35;5.43;;;;;;;;;;6042287;19;20311;-76
2023/01/22 10:07:14;;;;;;;8.52;4.70;;;;;;;;;;6039321;19;20482;-76
2023/01/22 10:09:23;;;;;;;9.38;5.07;;;;;;;;;;6038476;19;20074;-77
2023/01/22 10:11:28;;;;;;;10.70;5.32;;;;;;;;;;6040790;19;20877;-77
2023/01/22 10:13:37;;;;;;;10.40;4.75;;;;;;;;;;6041096;19;20188;-78
2023/01/22 10:15:43;;;;;;;11.10;6.13;;;;;;;;;;6042163;19;20299;-76
2023/01/22 10:17:51;;;;;;;10.88;5.25;;;;;;;;;;6039963;19;20524;-76
2023/01/22 10:19:58;;;;;;;10.40;5.22;;;;;;;;;;6046855;19;20011;-76
2023/01/22 10:22:08;;;;;;;10.25;5.55;;;;;;;;;;6052087;19;20343;-76
2023/01/22 10:24:15;;;;;;;12.27;5.18;;;;;;;;;;6047920;19;20280;-76
2023/01/22 10:26:24;;;;;;;12.65;5.93;;;;;;;;;;6048755;19;20403;-75
2023/01/22 10:28:33;;;;;;;10.88;5.78;;;;;;;;;;6044612;19;20253;-76
2023/01/22 10:30:49;;;;;;;11.02;5.40;;;;;;;;;;6047231;19;20011;-76
2023/01/22 10:33:08;;;;;;;11.32;6.13;;;;;;;;;;6043792;19;20209;-76
2023/01/22 10:35:21;;;;;;;9.32;5.15;;;;;;;;;;6052403;19;20452;-76
2023/01/22 10:37:26;;;;;;;10.30;5.13;;;;;;;;;;6044595;19;20331;-76
2023/01/22 10:39:41;;;;;;;11.38;5.38;;;;;;;;;;6050168;19;20031;-77
2023/01/22 10:41:48;;;;;;;12.77;6.00;;;;;;;;;;6023547;19;20189;-76
2023/01/22 10:43:53;;;;;;;10.40;4.78;;;;;;;;;;6043680;19;20472;-77
2023/01/22 10:46:01;;;;;;;12.55;5.63;;;;;;;;;;6044957;19;20320;-75
2023/01/22 10:48:20;;;;;;;10.15;4.68;;;;;;;;;;6048774;19;20275;-77
2023/01/22 10:50:25;;;;;;;11.68;5.30;;;;;;;;;;6044431;19;20010;-74
2023/01/22 10:52:38;;;;;;;10.00;5.70;;;;;;;;;;6042865;19;20243;-75
2023/01/22 10:54:45;;;;;;;11.95;5.07;;;;;;;;;;6044439;19;20025;-76
2023/01/22 10:56:51;;;;;;;13.98;5.57;;;;;;;;;;6044971;19;20322;-75
2023/01/22 10:58:56;;;;;;;11.95;6.22;;;;;;;;;;6054938;19;20273;-74
2023/01/22 11:01:06;;;;;;;9.65;4.93;;;;;;;;;;6061271;19;20102;-75
2023/01/22 11:03:22;;;;;;;9.10;5.20;;;;;;;;;;6063371;19;20343;-75
2023/01/22 11:05:32;;;;;;;9.75;4.40;;;;;;;;;;6069139;19;20019;-75
2023/01/22 11:07:37;;;;;;;12.27;5.50;;;;;;;;;;6037589;19;20119;-76
2023/01/22 11:09:45;;;;;;;11.10;5.50;;;;;;;;;;6053681;19;20118;-76
2023/01/22 11:11:56;;;;;;;11.60;5.22;;;;;;;;;;6051369;19;20015;-75
2023/01/22 11:14:07;;;;;;;10.40;5.32;;;;;;;;;;6044112;19;20518;-75
2023/01/22 11:16:17;;;;;;;12.02;5.32;;;;;;;;;;6052707;19;20014;-76
2023/01/22 11:18:34;;;;;;;9.95;5.35;;;;;;;;;;6034851;19;20014;-73
2023/01/22 11:20:49;;;;;;;9.88;4.90;;;;;;;;;;6024650;19;20762;-74
2023/01/22 11:23:06;;;;;;;12.38;5.47;;;;;;;;;;6042522;19;20014;-73
2023/01/22 11:25:16;;;;;;;10.75;5.22;;;;;;;;;;6036815;19;20341;-73
2023/01/22 11:27:49;;;;;;;7.78;4.65;;;;;;;;;;6040887;19;20412;-74
2023/01/22 11:30:15;;;;;;;8.68;5.45;;;;;;;;;;6038982;19;20341;-73
2023/01/22 11:32:54;;;;;;;11.05;5.68;;;;;;;;;;6036242;19;20169;-73
2023/01/22 11:35:14;;;;;;;12.23;5.72;;;;;;;;;;6047705;19;20442;-73
2023/01/22 11:37:29;;;;;;;8.55;4.88;;;;;;;;;;6045504;19;20304;-73
2023/01/22 11:39:45;;;;;;;10.65;5.20;;;;;;;;;;6042876;19;20653;-74
2023/01/22 11:42:12;;;;;;;11.00;5.93;;;;;;;;;;6022207;19;20202;-74
2023/01/22 11:44:51;;;;;;;10.23;4.57;;;;;;;;;;6028362;19;20309;-74
2023/01/22 11:47:24;;;;;;;10.43;5.35;;;;;;;;;;6051127;19;20300;-73
2023/01/22 11:49:39;;;;;;;8.38;5.03;;;;;;;;;;6055390;19;20337;-73
2023/01/22 11:51:57;;;;;;;12.40;6.28;;;;;;;;;;6052757;19;20291;-74
2023/01/22 11:54:25;;;;;;;13.73;5.57;;;;;;;;;;6053424;19;20287;-72
2023/01/22 11:56:49;;;;;;;9.95;4.30;;;;;;;;;;5975599;19;20480;-74
2023/01/22 11:59:07;;;;;;;10.88;6.22;;;;;;;;;;6031169;19;20514;-73
2023/01/22 12:01:24;;;;;;;12.50;5.88;;;;;;;;;;6048399;19;20011;-74
2023/01/22 12:04:07;;;;;;;10.60;5.95;;;;;;;;;;6024052;19;20491;-73
2023/01/22 12:06:26;;;;;;;10.60;5.18;;;;;;;;;;6031770;19;20697;-73
2023/01/22 12:08:47;;;;;;;9.13;5.15;;;;;;;;;;5999442;19;20274;-73
2023/01/22 12:11:04;;;;;;;11.05;4.97;;;;;;;;;;6039713;19;20114;-73
2023/01/22 12:13:25;;;;;;;9.35;4.50;;;;;;;;;;6047683;19;20006;-73
2023/01/22 12:15:39;;;;;;;11.93;5.55;;;;;;;;;;6044801;19;20652;-73
2023/01/22 12:17:58;;;;;;;9.80;5.45;;;;;;;;;;6055035;19;20588;-73
2023/01/22 12:20:28;;;;;;;12.45;6.28;;;;;;;;;;6046081;19;20516;-73
2023/01/22 12:22:39;;;;;;;11.90;6.40;;;;;;;;;;6046392;19;20501;-73
2023/01/22 12:25:01;;;;;;;12.00;6.38;;;;;;;;;;6039931;19;20013;-73
2023/01/22 12:27:09;;;;;;;11.25;5.47;;;;;;;;;;6047491;19;20375;-73
2023/01/22 12:29:20;;;;;;;9.50;5.22;;;;;;;;;;6043126;19;20752;-73
2023/01/22 12:31:30;;;;;;;12.07;5.45;;;;;;;;;;6025842;19;20290;-73
2023/01/22 12:33:41;;;;;;;13.40;6.30;;;;;;;;;;6043469;19;20379;-73
2023/01/22 12:35:54;;;;;;;11.98;4.97;;;;;;;;;;6023949;19;20010;-73
2023/01/22 12:38:04;;;;;;;12.80;5.45;;;;;;;;;;6040780;19;20109;-73
2023/01/22 12:40:57;;;;;;;10.80;5.82;;;;;;;;;;6040593;19;20047;-73
2023/01/22 12:43:06;;;;;;;12.43;5.45;;;;;;;;;;6022413;19;20507;-73
2023/01/22 12:45:22;;;;;;;11.50;5.85;;;;;;;;;;6051483;19;20255;-73
2023/01/22 12:47:36;;;;;;;10.13;5.75;;;;;;;;;;6055644;19;20366;-73
2023/01/22 12:49:50;;;;;;;16.52;5.82;;;;;;;;;;6040653;19;20602;-73
2023/01/22 12:51:58;;;;;;;13.90;5.45;;;;;;;;;;6049998;19;20014;-73
2023/01/22 12:54:20;;;;;;;10.77;5.30;;;;;;;;;;6043570;19;20018;-73
2023/01/22 12:56:34;;;;;;;14.35;6.45;;;;;;;;;;6044343;19;20437;-73
2023/01/22 12:58:41;;;;;;;7.28;4.30;;;;;;;;;;6050526;19;20479;-73
2023/01/22 13:01:10;;;;;;;11.30;5.57;;;;;;;;;;5987443;19;20564;-72
2023/01/22 13:03:27;;;;;;;10.77;5.93;;;;;;;;;;6050567;19;20015;-73
2023/01/22 13:05:45;;;;;;;9.77;5.43;;;;;;;;;;6048004;19;20235;-74
2023/01/22 13:07:51;;;;;;;12.40;5.93;;;;;;;;;;6042824;19;20122;-73
2023/01/22 13:10:08;;;;;;;10.20;5.90;;;;;;;;;;6046546;19;20208;-73
2023/01/22 13:12:27;;;;;;;14.32;6.75;;;;;;;;;;6051156;19;20640;-74
2023/01/22 13:14:36;;;;;;;11.90;5.90;;;;;;;;;;6040825;19;20254;-74
2023/01/22 13:16:41;;;;;;;11.25;6.05;;;;;;;;;;6046463;19;20487;-74
2023/01/22 13:18:51;;;;;;;11.18;5.60;;;;;;;;;;6054164;19;20192;-74